Terminal Aerodrome Forecast
Issued by NWS

Home | Current Version | Previous Version | Text Only | Print | Product List | Glossary On
Versions: 1 2 3 4 5 6 7 8 9 10 11 12 13 14 15 16 17 18 19
000
FTUS42 KTBW 180500
TAFLAL
TAF
KLAL 180521Z 1806/1906 00000KT 2SM BR FEW005
      TEMPO 1806/1810 1/2SM FG BKN004
     FM181300 VRB04KT P6SM SCT020 SCT250
     FM181600 02006KT P6SM SCT030 SCT150
     FM181900 35006KT P6SM VCTS SCT045CB BKN150
     FM190100 VRB03KT P6SM SCT050 BKN250
      AMD NOT SKED TIL 181200=

USA.gov is the U.S. government's official web portal to all federal, state and local government web resources and services.